Lunch Box — WDJ4295 — position and weather

sailwx.info

Track history (hours):
 
Tides and Currents Weather Stations Pressure Air Temp Water Temp Dewpoint Dewpoint Depression Visibility Wind Speed Wind Dir Waves Ship Positions

Lunch Box

Owner: HNY Ferry Fleet, New York, NY. More information available from US FCC via Universal Licensing System and Coast Guard Vessel Documentation Center.

Last reported at 2017-Oct-16 20:03 UTC. Time now 2017-Oct-17 02:21 UTC.
Position N 40°42' W 073°58'.

Length 26 m; draft 2 m.

Type: Passenger vessel. MMSI: 367776270.

Date/timePositionNaut miles runAvg speedWind from/ knotsBaromVisibWave heightAir tempDewpointWater temp
2017-Oct-16 20:03N 40°42' W 073°58'0 0.1
2017-Oct-16 20:00N 40°42' W 073°58'0 0.0
2017-Oct-16 19:30N 40°42' W 073°58'0 0.0
2017-Oct-16 19:00N 40°42' W 073°58'0 0.0
2017-Oct-16 18:30N 40°42' W 073°58'0 0.0
2017-Oct-16 18:00N 40°42' W 073°58'0 0.0
2017-Oct-16 17:30N 40°42' W 073°58'0 0.0
2017-Oct-16 17:00N 40°42' W 073°58'0 0.0
2017-Oct-16 16:30N 40°42' W 073°58'0 0.0
2017-Oct-16 16:00N 40°42' W 073°58'0 0.0
2017-Oct-16 15:30N 40°42' W 073°58'0 0.0
2017-Oct-16 15:00N 40°42' W 073°58'0 0.0
2017-Oct-16 14:30N 40°42' W 073°58'0 0.0
2017-Oct-16 13:30N 40°42' W 073°58'0 0.0
2017-Oct-16 13:00N 40°42' W 073°58'0 0.0
2017-Oct-16 12:30N 40°42' W 073°58'0 0.0
2017-Oct-16 12:00N 40°42' W 073°58'0 0.0
2017-Oct-16 11:30N 40°42' W 073°58'0 0.0
2017-Oct-16 11:00N 40°42' W 073°58'0 0.0
2017-Oct-16 10:30N 40°42' W 073°58'0 0.0
2017-Oct-16 10:00N 40°42' W 073°58'0 0.0
2017-Oct-16 09:30N 40°42' W 073°58'0 0.0
2017-Oct-16 09:00N 40°42' W 073°58'0 0.0
2017-Oct-16 08:30N 40°42' W 073°58'0 0.0
2017-Oct-16 08:00N 40°42' W 073°58'0 0.0
2017-Oct-16 07:30N 40°42' W 073°58'0 0.0
2017-Oct-16 07:00N 40°42' W 073°58'  
2017-Oct-14 02:12N 40°42' W 073°58'0 0.1
2017-Oct-14 02:00N 40°42' W 073°58'3 5.1
2017-Oct-14 01:30N 40°45' W 073°58'2 4.7
2017-Oct-14 01:00N 40°46' W 073°56'2 4.6
2017-Oct-14 00:30N 40°45' W 073°58'2 4.4
2017-Oct-14 00:00N 40°43' W 073°59'4 7.0
2017-Oct-13 23:30N 40°46' W 073°57'1 1.8
2017-Oct-13 23:00N 40°45' W 073°57'3 7.0
2017-Oct-13 22:30N 40°42' W 074°00'3 7.0
2017-Oct-13 22:00N 40°45' W 073°57'1 1.0
2017-Oct-13 21:30N 40°45' W 073°57'4 7.2
2017-Oct-13 21:00N 40°42' W 073°60'2 4.9
2017-Oct-13 20:30N 40°45' W 073°58'2 4.6
2017-Oct-13 19:59N 40°46' W 073°56'5 9.1
2017-Oct-13 19:30N 40°42' W 073°58'0 0.2
2017-Oct-13 19:00N 40°42' W 073°58'0 0.0
2017-Oct-13 18:30N 40°42' W 073°58'0 0.0
2017-Oct-13 18:00N 40°42' W 073°58'0 0.0
2017-Oct-13 17:30N 40°42' W 073°58'0 0.0
2017-Oct-13 17:00N 40°42' W 073°58'0 0.0
2017-Oct-13 16:30N 40°42' W 073°58'0 0.0
2017-Oct-13 16:00N 40°42' W 073°58'0 0.0
2017-Oct-13 15:30N 40°42' W 073°58'0 0.0
2017-Oct-13 15:00N 40°42' W 073°58'0 0.0
2017-Oct-13 14:31N 40°42' W 073°58'0 0.0
2017-Oct-13 14:00N 40°42' W 073°58'0 0.0
2017-Oct-13 13:30N 40°42' W 073°58'0 0.0
2017-Oct-13 13:00N 40°42' W 073°58'0 0.0
2017-Oct-13 12:30N 40°42' W 073°58'0 0.1
2017-Oct-13 12:00N 40°42' W 073°58'0 0.0
2017-Oct-13 03:14N 40°42' W 073°58'0 0.1
2017-Oct-13 03:00N 40°42' W 073°58'4 8.2
2017-Oct-13 02:30N 40°39' W 074°02'3 6.4
2017-Oct-13 02:00N 40°42' W 074°00'0 0.7
2017-Oct-13 01:30N 40°42' W 074°00'3 6.6
2017-Oct-13 01:00N 40°39' W 074°02'4 7.7
2017-Oct-13 00:30N 40°42' W 073°60'1 1.8
2017-Oct-13 00:00N 40°41' W 074°01'3 5.3
2017-Oct-12 23:30N 40°39' W 074°02'3 6.1
2017-Oct-12 23:00N 40°42' W 074°00'0 0.0
2017-Oct-12 22:30N 40°42' W 074°00'4 7.0
2017-Oct-12 22:00N 40°38' W 074°02'4 7.0
2017-Oct-12 21:30N 40°42' W 074°00'0 0.5
2017-Oct-12 21:00N 40°41' W 074°01'3 6.8
2017-Oct-12 20:30N 40°38' W 074°02'3 6.8
2017-Oct-12 20:00N 40°41' W 074°00'2 3.3
2017-Oct-12 19:30N 40°42' W 073°58'0 0.5
2017-Oct-12 19:00N 40°42' W 073°58'0 0.0
2017-Oct-12 18:30N 40°42' W 073°58'0 0.0
2017-Oct-12 18:00N 40°42' W 073°58'0 0.0
2017-Oct-12 17:30N 40°42' W 073°58'1 3.0
2017-Oct-12 17:01N 40°42' W 074°00'1 2.9
2017-Oct-12 16:30N 40°42' W 073°58'1 1.2
2017-Oct-12 16:00N 40°42' W 073°59'1 1.6
2017-Oct-12 15:30N 40°42' W 073°60'4 8.3
2017-Oct-12 15:00N 40°38' W 074°02'4 7.1
2017-Oct-12 14:30N 40°42' W 074°00'0 0.1
2017-Oct-12 14:00N 40°42' W 074°00'4 7.2
2017-Oct-12 13:30N 40°38' W 074°02'4 7.2
2017-Oct-12 13:00N 40°42' W 074°00'0 0.0
2017-Oct-12 12:29N 40°42' W 074°00'4 7.2
2017-Oct-12 12:00N 40°38' W 074°02'4 6.9
2017-Oct-12 11:30N 40°42' W 074°00'0 0.1
2017-Oct-12 11:00N 40°42' W 074°00'4 7.1
2017-Oct-12 10:30N 40°38' W 074°02'5 9.4
2017-Oct-12 10:00N 40°42' W 073°58'0 0.0
2017-Oct-12 02:52N 40°42' W 073°58'3 7.1
2017-Oct-12 02:30N 40°45' W 073°58'3 5.6
2017-Oct-12 02:00N 40°42' W 073°60'0 0.9
2017-Oct-12 01:30N 40°42' W 074°00'1 1.7
2017-Oct-12 01:00N 40°42' W 073°59'2 4.9
2017-Oct-12 00:30N 40°45' W 073°58'3 5.3
2017-Oct-12 00:00N 40°42' W 073°60'0 0.9
2017-Oct-11 23:29N 40°42' W 074°00'2 4.7
2017-Oct-11 23:00N 40°44' W 073°58'0 0.6
2017-Oct-11 22:30N 40°43' W 073°58'2 4.3
2017-Oct-11 22:00N 40°42' W 074°00'2 3.3
2017-Oct-11 21:30N 40°43' W 073°58'2 4.0
2017-Oct-11 21:00N 40°45' W 073°58'3 6.1
2017-Oct-11 20:30N 40°42' W 074°00'1 2.8
2017-Oct-11 20:00N 40°41' W 074°01'1 2.7
2017-Oct-11 19:30N 40°42' W 074°00'3 5.8
2017-Oct-11 19:00N 40°45' W 073°58'2 4.4
2017-Oct-11 18:30N 40°43' W 073°59'0 0.5
2017-Oct-11 18:00N 40°42' W 073°59'0 0.4
2017-Oct-11 17:31N 40°43' W 073°59'2 4.2
2017-Oct-11 17:00N 40°45' W 073°58'2 0.1
2017-Oct-10 23:56N 40°42' W 073°58'1 2.4
2017-Oct-10 23:30N 40°42' W 073°60'2 3.1
2017-Oct-10 23:00N 40°43' W 073°58'1 1.6
2017-Oct-10 22:30N 40°44' W 073°58'3 5.2
2017-Oct-10 22:00N 40°42' W 074°00'2 3.2
2017-Oct-10 21:31N 40°43' W 073°58'2 4.2
2017-Oct-10 21:00N 40°45' W 073°58'2 4.2
2017-Oct-10 20:30N 40°43' W 073°58'2 3.2
2017-Oct-10 20:01N 40°42' W 074°00'0 0.6
2017-Oct-10 19:31N 40°42' W 074°00'0 0.7
2017-Oct-10 19:00N 40°42' W 073°60'2 4.7
2017-Oct-10 18:31N 40°44' W 073°58'1 1.6
2017-Oct-10 18:00N 40°43' W 073°58'2 4.2
2017-Oct-10 17:30N 40°42' W 074°00'0 0.0
2017-Oct-10 17:01N 40°42' W 074°00'2 4.3
2017-Oct-10 16:31N 40°43' W 073°58'0 0.1
2017-Oct-10 16:01N 40°43' W 073°58'2 4.2
2017-Oct-10 15:30N 40°42' W 074°00'0 0.0
2017-Oct-10 15:01N 40°42' W 074°00'2 2.1
2017-Oct-10 14:01N 40°43' W 073°58'2 4.2
2017-Oct-10 13:30N 40°42' W 074°00'2 3.3
2017-Oct-10 13:01N 40°43' W 073°58'1 2.8
2017-Oct-10 12:30N 40°44' W 073°58'3 5.1
2017-Oct-10 12:01N 40°42' W 074°00'0 0.1
2017-Oct-10 11:30N 40°42' W 074°00'3 6.0
2017-Oct-10 11:01N 40°45' W 073°58'2 4.2
2017-Oct-10 10:31N 40°43' W 073°59'0 0.7
2017-Oct-10 10:01N 40°42' W 073°58'0 0.3
2017-Oct-10 09:30N 40°42' W 073°58'0 0.0
2017-Oct-10 09:00N 40°42' W 073°58'0 0.0
2017-Oct-10 08:30N 40°42' W 073°58'0 0.0
2017-Oct-10 02:51N 40°42' W 073°58'514.0
2017-Oct-10 02:30N 40°38' W 074°02'3 7.0
2017-Oct-10 02:01N 40°42' W 074°00'0 0.2
2017-Oct-10 01:30N 40°42' W 074°00'4 7.1
2017-Oct-10 01:01N 40°38' W 074°02'4 7.0
2017-Oct-10 00:31N 40°42' W 074°00'0 0.2
2017-Oct-10 00:01N 40°42' W 074°00'4 7.0
2017-Oct-09 23:31N 40°38' W 074°02'4 7.0
2017-Oct-09 23:00N 40°42' W 074°00'0 0.1
2017-Oct-09 22:30N 40°42' W 074°00'4 7.1
2017-Oct-09 22:01N 40°38' W 074°02'3 7.0
2017-Oct-09 21:30N 40°42' W 074°00'0 0.3
2017-Oct-09 21:01N 40°42' W 074°00'4 7.0
2017-Oct-09 20:30N 40°38' W 074°02'4 6.1
2017-Oct-09 19:55N 40°42' W 074°00'0 0.6
2017-Oct-09 19:31N 40°42' W 074°01'2 3.5
2017-Oct-09 19:00N 40°42' W 073°58'0 0.0
2017-Oct-09 18:30N 40°42' W 073°58'0 0.0
2017-Oct-09 18:00N 40°42' W 073°58'0 0.0
2017-Oct-09 17:30N 40°42' W 073°58'2 3.0
2017-Oct-09 17:00N 40°42' W 074°00'1 2.9
2017-Oct-09 16:31N 40°42' W 073°58'1 2.9
2017-Oct-09 16:00N 40°42' W 074°00'2 3.0
2017-Oct-09 15:30N 40°42' W 073°58'5 9.3
2017-Oct-09 15:01N 40°39' W 074°02'3 6.8
2017-Oct-09 14:31N 40°42' W 074°00'0 0.0
2017-Oct-09 14:01N 40°42' W 074°00'4 7.1
2017-Oct-09 13:30N 40°38' W 074°02'4 7.0
2017-Oct-09 13:00N 40°42' W 074°00'0 0.1
2017-Oct-09 12:31N 40°42' W 074°00'3 6.9
2017-Oct-09 12:00N 40°38' W 074°02'4 8.3
2017-Oct-09 11:31N 40°42' W 073°60'2 3.1
2017-Oct-09 11:01N 40°41' W 074°01'3 5.4
2017-Oct-09 10:31N 40°38' W 074°02'5 9.5
2017-Oct-09 10:00N 40°42' W 073°58'0 0.0
2017-Oct-09 09:30N 40°42' W 073°58'0 0.0
2017-Oct-09 09:00N 40°42' W 073°58'0 0.0
2017-Oct-08 15:25N 40°42' W 073°58'1 2.3
2017-Oct-08 15:00N 40°42' W 073°59'1 0.1
2017-Oct-08 02:20N 40°42' W 073°58'1 3.7
2017-Oct-08 02:01N 40°42' W 073°60'4 7.2
2017-Oct-08 01:30N 40°45' W 073°57'0 0.4
2017-Oct-08 01:01N 40°45' W 073°57'4 7.7
2017-Oct-08 00:30N 40°42' W 074°00'3 7.0
2017-Oct-08 00:01N 40°45' W 073°57'1 1.1
2017-Oct-07 23:30N 40°45' W 073°57'3 6.2
2017-Oct-07 23:01N 40°43' W 073°58'2 4.1
2017-Oct-07 22:30N 40°45' W 073°58'2 4.3
2017-Oct-07 21:58N 40°46' W 073°56'2 4.8
2017-Oct-07 21:30N 40°45' W 073°58'2 4.4
2017-Oct-07 21:00N 40°43' W 073°59'3 6.7
2017-Oct-07 20:30N 40°46' W 073°57'1 1.5
2017-Oct-07 20:00N 40°45' W 073°57'3 7.0
2017-Oct-07 19:30N 40°42' W 074°00'3 7.0
2017-Oct-07 19:00N 40°45' W 073°57'1 1.1
2017-Oct-07 18:30N 40°45' W 073°57'4 7.3
2017-Oct-07 18:00N 40°42' W 073°60'3 5.1
2017-Oct-07 17:30N 40°45' W 073°58'2 4.5
2017-Oct-07 17:00N 40°46' W 073°56'2 4.7
2017-Oct-07 16:30N 40°45' W 073°58'1 2.8
2017-Oct-07 16:00N 40°43' W 073°58'3 6.6
2017-Oct-07 15:30N 40°46' W 073°56'2 3.0
2017-Oct-07 14:59N 40°45' W 073°57'3 7.2
2017-Oct-07 14:31N 40°42' W 074°00'4 7.2
2017-Oct-07 14:00N 40°45' W 073°57'0 0.8
2017-Oct-07 13:30N 40°45' W 073°57'4 8.0
2017-Oct-07 13:00N 40°42' W 074°00'3 5.8
2017-Oct-07 12:30N 40°45' W 073°58'2 4.3
2017-Oct-07 12:00N 40°46' W 073°56'3 5.7
2017-Oct-07 11:30N 40°44' W 073°58'0 0.4
2017-Oct-07 11:00N 40°44' W 073°58'3 5.6
2017-Oct-07 10:29N 40°46' W 073°56'5 9.4
2017-Oct-07 10:00N 40°42' W 073°58'0 0.0
2017-Oct-07 02:59N 40°42' W 073°58'510.1
2017-Oct-07 02:31N 40°38' W 074°02'4 7.1
2017-Oct-07 02:00N 40°42' W 074°00'0 0.0
2017-Oct-07 01:30N 40°42' W 074°00'4 7.1
2017-Oct-07 01:00N 40°38' W 074°02'4 7.1
2017-Oct-07 00:30N 40°42' W 074°00'1 1.1
2017-Oct-07 00:00N 40°41' W 074°01'3 5.1
2017-Oct-06 23:30N 40°39' W 074°02'3 6.1
2017-Oct-06 23:01N 40°42' W 074°00'0 0.3
2017-Oct-06 22:31N 40°42' W 074°00'3 6.8
2017-Oct-06 22:01N 40°38' W 074°02'4 7.0
2017-Oct-06 21:30N 40°42' W 074°00'0 0.8
2017-Oct-06 21:00N 40°41' W 074°01'3 6.3
2017-Oct-06 20:30N 40°38' W 074°02'  
Track history (hours):
 
Tides and Currents Weather Stations Pressure Air Temp Water Temp Dewpoint Dewpoint Depression Visibility Wind Speed Wind Dir Waves Ship Positions

Lunch Box

Owner: HNY Ferry Fleet, New York, NY. More information available from US FCC via Universal Licensing System and Coast Guard Vessel Documentation Center.

Last reported at 2017-Oct-16 20:03 UTC. Time now 2017-Oct-17 02:21 UTC.
Position N 40°42' W 073°58'.

Length 26 m; draft 2 m.

Type: Passenger vessel. MMSI: 367776270.

Date/timePositionNaut miles runAvg speedWind from/ knotsBaromVisibWave heightAir tempDewpointWater temp
2017-Oct-16 20:03N 40°42' W 073°58'0 0.1
2017-Oct-16 20:00N 40°42' W 073°58'0 0.0
2017-Oct-16 19:30N 40°42' W 073°58'0 0.0
2017-Oct-16 19:00N 40°42' W 073°58'0 0.0
2017-Oct-16 18:30N 40°42' W 073°58'0 0.0
2017-Oct-16 18:00N 40°42' W 073°58'0 0.0
2017-Oct-16 17:30N 40°42' W 073°58'0 0.0
2017-Oct-16 17:00N 40°42' W 073°58'0 0.0
2017-Oct-16 16:30N 40°42' W 073°58'0 0.0
2017-Oct-16 16:00N 40°42' W 073°58'0 0.0
2017-Oct-16 15:30N 40°42' W 073°58'0 0.0
2017-Oct-16 15:00N 40°42' W 073°58'0 0.0
2017-Oct-16 14:30N 40°42' W 073°58'0 0.0
2017-Oct-16 13:30N 40°42' W 073°58'0 0.0
2017-Oct-16 13:00N 40°42' W 073°58'0 0.0
2017-Oct-16 12:30N 40°42' W 073°58'0 0.0
2017-Oct-16 12:00N 40°42' W 073°58'0 0.0
2017-Oct-16 11:30N 40°42' W 073°58'0 0.0
2017-Oct-16 11:00N 40°42' W 073°58'0 0.0
2017-Oct-16 10:30N 40°42' W 073°58'0 0.0
2017-Oct-16 10:00N 40°42' W 073°58'0 0.0
2017-Oct-16 09:30N 40°42' W 073°58'0 0.0
2017-Oct-16 09:00N 40°42' W 073°58'0 0.0
2017-Oct-16 08:30N 40°42' W 073°58'0 0.0
2017-Oct-16 08:00N 40°42' W 073°58'0 0.0
2017-Oct-16 07:30N 40°42' W 073°58'0 0.0
2017-Oct-16 07:00N 40°42' W 073°58'  
2017-Oct-14 02:12N 40°42' W 073°58'0 0.1
2017-Oct-14 02:00N 40°42' W 073°58'3 5.1
2017-Oct-14 01:30N 40°45' W 073°58'2 4.7
2017-Oct-14 01:00N 40°46' W 073°56'2 4.6
2017-Oct-14 00:30N 40°45' W 073°58'2 4.4
2017-Oct-14 00:00N 40°43' W 073°59'4 7.0
2017-Oct-13 23:30N 40°46' W 073°57'1 1.8
2017-Oct-13 23:00N 40°45' W 073°57'3 7.0
2017-Oct-13 22:30N 40°42' W 074°00'3 7.0
2017-Oct-13 22:00N 40°45' W 073°57'1 1.0
2017-Oct-13 21:30N 40°45' W 073°57'4 7.2
2017-Oct-13 21:00N 40°42' W 073°60'2 4.9
2017-Oct-13 20:30N 40°45' W 073°58'2 4.6
2017-Oct-13 19:59N 40°46' W 073°56'5 9.1
2017-Oct-13 19:30N 40°42' W 073°58'0 0.2
2017-Oct-13 19:00N 40°42' W 073°58'0 0.0
2017-Oct-13 18:30N 40°42' W 073°58'0 0.0
2017-Oct-13 18:00N 40°42' W 073°58'0 0.0
2017-Oct-13 17:30N 40°42' W 073°58'0 0.0
2017-Oct-13 17:00N 40°42' W 073°58'0 0.0
2017-Oct-13 16:30N 40°42' W 073°58'0 0.0
2017-Oct-13 16:00N 40°42' W 073°58'0 0.0
2017-Oct-13 15:30N 40°42' W 073°58'0 0.0
2017-Oct-13 15:00N 40°42' W 073°58'0 0.0
2017-Oct-13 14:31N 40°42' W 073°58'0 0.0
2017-Oct-13 14:00N 40°42' W 073°58'0 0.0
2017-Oct-13 13:30N 40°42' W 073°58'0 0.0
2017-Oct-13 13:00N 40°42' W 073°58'0 0.0
2017-Oct-13 12:30N 40°42' W 073°58'0 0.1
2017-Oct-13 12:00N 40°42' W 073°58'0 0.0
2017-Oct-13 03:14N 40°42' W 073°58'0 0.1
2017-Oct-13 03:00N 40°42' W 073°58'4 8.2
2017-Oct-13 02:30N 40°39' W 074°02'3 6.4
2017-Oct-13 02:00N 40°42' W 074°00'0 0.7
2017-Oct-13 01:30N 40°42' W 074°00'3 6.6
2017-Oct-13 01:00N 40°39' W 074°02'4 7.7
2017-Oct-13 00:30N 40°42' W 073°60'1 1.8
2017-Oct-13 00:00N 40°41' W 074°01'3 5.3
2017-Oct-12 23:30N 40°39' W 074°02'3 6.1
2017-Oct-12 23:00N 40°42' W 074°00'0 0.0
2017-Oct-12 22:30N 40°42' W 074°00'4 7.0
2017-Oct-12 22:00N 40°38' W 074°02'4 7.0
2017-Oct-12 21:30N 40°42' W 074°00'0 0.5
2017-Oct-12 21:00N 40°41' W 074°01'3 6.8
2017-Oct-12 20:30N 40°38' W 074°02'3 6.8
2017-Oct-12 20:00N 40°41' W 074°00'2 3.3
2017-Oct-12 19:30N 40°42' W 073°58'0 0.5
2017-Oct-12 19:00N 40°42' W 073°58'0 0.0
2017-Oct-12 18:30N 40°42' W 073°58'0 0.0
2017-Oct-12 18:00N 40°42' W 073°58'0 0.0
2017-Oct-12 17:30N 40°42' W 073°58'1 3.0
2017-Oct-12 17:01N 40°42' W 074°00'1 2.9
2017-Oct-12 16:30N 40°42' W 073°58'1 1.2
2017-Oct-12 16:00N 40°42' W 073°59'1 1.6
2017-Oct-12 15:30N 40°42' W 073°60'4 8.3
2017-Oct-12 15:00N 40°38' W 074°02'4 7.1
2017-Oct-12 14:30N 40°42' W 074°00'0 0.1
2017-Oct-12 14:00N 40°42' W 074°00'4 7.2
2017-Oct-12 13:30N 40°38' W 074°02'4 7.2
2017-Oct-12 13:00N 40°42' W 074°00'0 0.0
2017-Oct-12 12:29N 40°42' W 074°00'4 7.2
2017-Oct-12 12:00N 40°38' W 074°02'4 6.9
2017-Oct-12 11:30N 40°42' W 074°00'0 0.1
2017-Oct-12 11:00N 40°42' W 074°00'4 7.1
2017-Oct-12 10:30N 40°38' W 074°02'5 9.4
2017-Oct-12 10:00N 40°42' W 073°58'0 0.0
2017-Oct-12 02:52N 40°42' W 073°58'3 7.1
2017-Oct-12 02:30N 40°45' W 073°58'3 5.6
2017-Oct-12 02:00N 40°42' W 073°60'0 0.9
2017-Oct-12 01:30N 40°42' W 074°00'1 1.7
2017-Oct-12 01:00N 40°42' W 073°59'2 4.9
2017-Oct-12 00:30N 40°45' W 073°58'3 5.3
2017-Oct-12 00:00N 40°42' W 073°60'0 0.9
2017-Oct-11 23:29N 40°42' W 074°00'2 4.7
2017-Oct-11 23:00N 40°44' W 073°58'0 0.6
2017-Oct-11 22:30N 40°43' W 073°58'2 4.3
2017-Oct-11 22:00N 40°42' W 074°00'2 3.3
2017-Oct-11 21:30N 40°43' W 073°58'2 4.0
2017-Oct-11 21:00N 40°45' W 073°58'3 6.1
2017-Oct-11 20:30N 40°42' W 074°00'1 2.8
2017-Oct-11 20:00N 40°41' W 074°01'1 2.7
2017-Oct-11 19:30N 40°42' W 074°00'3 5.8
2017-Oct-11 19:00N 40°45' W 073°58'2 4.4
2017-Oct-11 18:30N 40°43' W 073°59'0 0.5
2017-Oct-11 18:00N 40°42' W 073°59'0 0.4
2017-Oct-11 17:31N 40°43' W 073°59'2 4.2
2017-Oct-11 17:00N 40°45' W 073°58'2 0.1
2017-Oct-10 23:56N 40°42' W 073°58'1 2.4
2017-Oct-10 23:30N 40°42' W 073°60'2 3.1
2017-Oct-10 23:00N 40°43' W 073°58'1 1.6
2017-Oct-10 22:30N 40°44' W 073°58'3 5.2
2017-Oct-10 22:00N 40°42' W 074°00'2 3.2
2017-Oct-10 21:31N 40°43' W 073°58'2 4.2
2017-Oct-10 21:00N 40°45' W 073°58'2 4.2
2017-Oct-10 20:30N 40°43' W 073°58'2 3.2
2017-Oct-10 20:01N 40°42' W 074°00'0 0.6
2017-Oct-10 19:31N 40°42' W 074°00'0 0.7
2017-Oct-10 19:00N 40°42' W 073°60'2 4.7
2017-Oct-10 18:31N 40°44' W 073°58'1 1.6
2017-Oct-10 18:00N 40°43' W 073°58'2 4.2
2017-Oct-10 17:30N 40°42' W 074°00'0 0.0
2017-Oct-10 17:01N 40°42' W 074°00'2 4.3
2017-Oct-10 16:31N 40°43' W 073°58'0 0.1
2017-Oct-10 16:01N 40°43' W 073°58'2 4.2
2017-Oct-10 15:30N 40°42' W 074°00'0 0.0
2017-Oct-10 15:01N 40°42' W 074°00'2 2.1
2017-Oct-10 14:01N 40°43' W 073°58'2 4.2
2017-Oct-10 13:30N 40°42' W 074°00'2 3.3
2017-Oct-10 13:01N 40°43' W 073°58'1 2.8
2017-Oct-10 12:30N 40°44' W 073°58'3 5.1
2017-Oct-10 12:01N 40°42' W 074°00'0 0.1
2017-Oct-10 11:30N 40°42' W 074°00'3 6.0
2017-Oct-10 11:01N 40°45' W 073°58'2 4.2
2017-Oct-10 10:31N 40°43' W 073°59'0 0.7
2017-Oct-10 10:01N 40°42' W 073°58'0 0.3
2017-Oct-10 09:30N 40°42' W 073°58'0 0.0
2017-Oct-10 09:00N 40°42' W 073°58'0 0.0
2017-Oct-10 08:30N 40°42' W 073°58'0 0.0
2017-Oct-10 02:51N 40°42' W 073°58'514.0
2017-Oct-10 02:30N 40°38' W 074°02'3 7.0
2017-Oct-10 02:01N 40°42' W 074°00'0 0.2
2017-Oct-10 01:30N 40°42' W 074°00'4 7.1
2017-Oct-10 01:01N 40°38' W 074°02'4 7.0
2017-Oct-10 00:31N 40°42' W 074°00'0 0.2
2017-Oct-10 00:01N 40°42' W 074°00'4 7.0
2017-Oct-09 23:31N 40°38' W 074°02'4 7.0
2017-Oct-09 23:00N 40°42' W 074°00'0 0.1
2017-Oct-09 22:30N 40°42' W 074°00'4 7.1
2017-Oct-09 22:01N 40°38' W 074°02'3 7.0
2017-Oct-09 21:30N 40°42' W 074°00'0 0.3
2017-Oct-09 21:01N 40°42' W 074°00'4 7.0
2017-Oct-09 20:30N 40°38' W 074°02'4 6.1
2017-Oct-09 19:55N 40°42' W 074°00'0 0.6
2017-Oct-09 19:31N 40°42' W 074°01'2 3.5
2017-Oct-09 19:00N 40°42' W 073°58'0 0.0
2017-Oct-09 18:30N 40°42' W 073°58'0 0.0
2017-Oct-09 18:00N 40°42' W 073°58'0 0.0
2017-Oct-09 17:30N 40°42' W 073°58'2 3.0
2017-Oct-09 17:00N 40°42' W 074°00'1 2.9
2017-Oct-09 16:31N 40°42' W 073°58'1 2.9
2017-Oct-09 16:00N 40°42' W 074°00'2 3.0
2017-Oct-09 15:30N 40°42' W 073°58'5 9.3
2017-Oct-09 15:01N 40°39' W 074°02'3 6.8
2017-Oct-09 14:31N 40°42' W 074°00'0 0.0
2017-Oct-09 14:01N 40°42' W 074°00'4 7.1
2017-Oct-09 13:30N 40°38' W 074°02'4 7.0
2017-Oct-09 13:00N 40°42' W 074°00'0 0.1
2017-Oct-09 12:31N 40°42' W 074°00'3 6.9
2017-Oct-09 12:00N 40°38' W 074°02'4 8.3
2017-Oct-09 11:31N 40°42' W 073°60'2 3.1
2017-Oct-09 11:01N 40°41' W 074°01'3 5.4
2017-Oct-09 10:31N 40°38' W 074°02'5 9.5
2017-Oct-09 10:00N 40°42' W 073°58'0 0.0
2017-Oct-09 09:30N 40°42' W 073°58'0 0.0
2017-Oct-09 09:00N 40°42' W 073°58'0 0.0
2017-Oct-08 15:25N 40°42' W 073°58'1 2.3
2017-Oct-08 15:00N 40°42' W 073°59'1 0.1
2017-Oct-08 02:20N 40°42' W 073°58'1 3.7
2017-Oct-08 02:01N 40°42' W 073°60'4 7.2
2017-Oct-08 01:30N 40°45' W 073°57'0 0.4
2017-Oct-08 01:01N 40°45' W 073°57'4 7.7
2017-Oct-08 00:30N 40°42' W 074°00'3 7.0
2017-Oct-08 00:01N 40°45' W 073°57'1 1.1
2017-Oct-07 23:30N 40°45' W 073°57'3 6.2
2017-Oct-07 23:01N 40°43' W 073°58'2 4.1
2017-Oct-07 22:30N 40°45' W 073°58'2 4.3
2017-Oct-07 21:58N 40°46' W 073°56'2 4.8
2017-Oct-07 21:30N 40°45' W 073°58'2 4.4
2017-Oct-07 21:00N 40°43' W 073°59'3 6.7
2017-Oct-07 20:30N 40°46' W 073°57'1 1.5
2017-Oct-07 20:00N 40°45' W 073°57'3 7.0
2017-Oct-07 19:30N 40°42' W 074°00'3 7.0
2017-Oct-07 19:00N 40°45' W 073°57'1 1.1
2017-Oct-07 18:30N 40°45' W 073°57'4 7.3
2017-Oct-07 18:00N 40°42' W 073°60'3 5.1
2017-Oct-07 17:30N 40°45' W 073°58'2 4.5
2017-Oct-07 17:00N 40°46' W 073°56'2 4.7
2017-Oct-07 16:30N 40°45' W 073°58'1 2.8
2017-Oct-07 16:00N 40°43' W 073°58'3 6.6
2017-Oct-07 15:30N 40°46' W 073°56'2 3.0
2017-Oct-07 14:59N 40°45' W 073°57'3 7.2
2017-Oct-07 14:31N 40°42' W 074°00'4 7.2
2017-Oct-07 14:00N 40°45' W 073°57'0 0.8
2017-Oct-07 13:30N 40°45' W 073°57'4 8.0
2017-Oct-07 13:00N 40°42' W 074°00'3 5.8
2017-Oct-07 12:30N 40°45' W 073°58'2 4.3
2017-Oct-07 12:00N 40°46' W 073°56'3 5.7
2017-Oct-07 11:30N 40°44' W 073°58'0 0.4
2017-Oct-07 11:00N 40°44' W 073°58'3 5.6
2017-Oct-07 10:29N 40°46' W 073°56'5 9.4
2017-Oct-07 10:00N 40°42' W 073°58'0 0.0
2017-Oct-07 02:59N 40°42' W 073°58'510.1
2017-Oct-07 02:31N 40°38' W 074°02'4 7.1
2017-Oct-07 02:00N 40°42' W 074°00'0 0.0
2017-Oct-07 01:30N 40°42' W 074°00'4 7.1
2017-Oct-07 01:00N 40°38' W 074°02'4 7.1
2017-Oct-07 00:30N 40°42' W 074°00'1 1.1
2017-Oct-07 00:00N 40°41' W 074°01'3 5.1
2017-Oct-06 23:30N 40°39' W 074°02'3 6.1
2017-Oct-06 23:01N 40°42' W 074°00'0 0.3
2017-Oct-06 22:31N 40°42' W 074°00'3 6.8
2017-Oct-06 22:01N 40°38' W 074°02'4 7.0
2017-Oct-06 21:30N 40°42' W 074°00'0 0.8
2017-Oct-06 21:00N 40°41' W 074°01'3 6.3
2017-Oct-06 20:30N 40°38' W 074°02'  

Dump ship's entire track history